createdAt,value
2018-07-20T00:00:00.979Z,71.00
2018-07-20T00:00:33.682Z,70.90
2018-07-20T00:01:06.551Z,70.80
2018-07-20T00:01:39.278Z,70.80
2018-07-20T00:02:12.018Z,70.60
2018-07-20T00:02:44.730Z,70.60
2018-07-20T00:03:17.483Z,70.70
2018-07-20T00:03:50.217Z,70.70
2018-07-20T00:04:22.969Z,70.70
2018-07-20T00:04:55.715Z,70.60
2018-07-20T00:05:28.462Z,70.50
2018-07-20T00:06:33.834Z,70.50
2018-07-20T00:07:06.535Z,70.50
2018-07-20T00:07:39.270Z,70.70
2018-07-20T00:08:12.021Z,70.70
2018-07-20T00:08:44.882Z,70.80
2018-07-20T00:09:17.574Z,71.00
2018-07-20T00:09:50.326Z,70.90
2018-07-20T00:10:23.002Z,71.00
2018-07-20T00:10:55.706Z,70.90
2018-07-20T00:11:28.394Z,70.70
2018-07-20T00:12:01.167Z,70.50
2018-07-20T00:12:33.894Z,70.50
2018-07-20T00:13:06.686Z,70.50
2018-07-20T00:13:39.386Z,70.50
2018-07-20T00:14:12.090Z,70.50
2018-07-20T00:14:44.819Z,70.40
2018-07-20T00:15:17.536Z,70.40
2018-07-20T00:15:50.230Z,70.30
2018-07-20T00:16:22.962Z,70.20
2018-07-20T00:16:55.679Z,70.10
2018-07-20T00:17:28.362Z,70.00
2018-07-20T00:18:01.115Z,69.90
2018-07-20T00:18:33.854Z,69.90
2018-07-20T00:19:06.579Z,70.70
2018-07-20T00:19:39.313Z,70.30
2018-07-20T00:20:12.031Z,70.40
2018-07-20T00:20:44.778Z,70.40
2018-07-20T00:21:17.502Z,70.70
2018-07-20T00:21:50.266Z,70.60
2018-07-20T00:22:23.094Z,70.70
2018-07-20T00:22:55.814Z,70.60
2018-07-20T00:23:28.587Z,70.40
2018-07-20T00:24:01.548Z,70.40
2018-07-20T00:24:34.255Z,70.50
2018-07-20T00:25:07.002Z,70.40
2018-07-20T00:25:39.718Z,70.40
2018-07-20T00:26:12.426Z,70.30
2018-07-20T00:26:45.146Z,70.30
2018-07-20T00:27:17.854Z,70.10
2018-07-20T00:27:50.555Z,69.90
2018-07-20T00:28:23.287Z,70.00
2018-07-20T00:28:56.002Z,69.90
2018-07-20T00:29:28.750Z,69.80
2018-07-20T00:30:01.443Z,69.80
2018-07-20T00:30:34.179Z,69.70
2018-07-20T00:31:06.966Z,70.00
2018-07-20T00:31:39.731Z,69.80
2018-07-20T00:32:12.475Z,69.80
2018-07-20T00:32:45.183Z,69.70
2018-07-20T00:33:17.869Z,69.80
2018-07-20T00:33:50.603Z,69.90
2018-07-20T00:34:23.325Z,70.00
2018-07-20T00:34:56.098Z,70.00
2018-07-20T00:35:28.834Z,70.00
2018-07-20T00:36:01.554Z,69.70
2018-07-20T00:36:34.251Z,69.80
2018-07-20T00:37:06.951Z,69.90
2018-07-20T00:37:39.686Z,69.80
2018-07-20T00:38:12.390Z,69.80
2018-07-20T00:38:45.146Z,69.70
2018-07-20T00:39:17.882Z,69.80
2018-07-20T00:39:50.582Z,69.80
2018-07-20T00:40:23.342Z,69.60
2018-07-20T00:40:56.050Z,69.80
2018-07-20T00:41:28.767Z,69.80
2018-07-20T00:42:01.486Z,69.90
2018-07-20T00:42:34.187Z,69.80
2018-07-20T00:43:06.891Z,69.90
2018-07-20T00:43:39.583Z,69.80
2018-07-20T00:44:12.282Z,70.50
2018-07-20T00:44:44.975Z,69.80
2018-07-20T00:45:17.691Z,69.70
2018-07-20T00:45:50.474Z,69.70
2018-07-20T00:46:23.166Z,69.60
2018-07-20T00:46:55.866Z,69.50
2018-07-20T00:47:28.592Z,70.20
2018-07-20T00:48:01.290Z,69.70
2018-07-20T00:48:33.986Z,69.60
2018-07-20T00:49:06.712Z,69.50
2018-07-20T00:49:39.419Z,69.50
2018-07-20T00:50:12.171Z,69.60
2018-07-20T00:50:44.883Z,69.60
2018-07-20T00:51:17.614Z,69.60
2018-07-20T00:51:50.347Z,69.70
2018-07-20T00:52:55.678Z,70.30
2018-07-20T00:53:28.382Z,69.70
2018-07-20T00:54:01.115Z,69.70
2018-07-20T00:54:33.830Z,69.70
2018-07-20T00:55:06.551Z,70.50
2018-07-20T00:55:39.266Z,69.80
2018-07-20T00:56:11.987Z,69.80
2018-07-20T00:56:44.712Z,69.80
2018-07-20T00:57:17.418Z,69.80
2018-07-20T00:57:50.214Z,69.90
2018-07-20T00:58:23.118Z,69.80
2018-07-20T00:58:55.907Z,69.80
2018-07-20T00:59:28.630Z,70.30
2018-07-20T01:00:01.348Z,69.80
2018-07-20T01:00:34.083Z,69.70
2018-07-20T01:01:06.803Z,69.80
2018-07-20T01:01:39.509Z,69.90
2018-07-20T01:02:12.323Z,70.00
2018-07-20T01:02:45.055Z,70.10
2018-07-20T01:03:17.774Z,70.00
2018-07-20T01:03:50.471Z,70.10
2018-07-20T01:04:23.182Z,70.40
2018-07-20T01:04:55.866Z,70.30
2018-07-20T01:05:28.672Z,70.30
2018-07-20T01:06:01.363Z,70.20
2018-07-20T01:06:34.067Z,70.20
2018-07-20T01:07:06.782Z,70.10
2018-07-20T01:07:39.546Z,70.20
2018-07-20T01:08:12.391Z,70.30
2018-07-20T01:08:45.122Z,70.30
2018-07-20T01:09:17.904Z,70.20
2018-07-20T01:09:50.616Z,70.10
2018-07-20T01:10:23.343Z,70.10
2018-07-20T01:10:56.055Z,70.00
2018-07-20T01:11:28.810Z,70.10
2018-07-20T01:12:01.494Z,70.20
2018-07-20T01:12:34.238Z,70.30
2018-07-20T01:13:07.022Z,70.30
2018-07-20T01:13:39.721Z,70.30
2018-07-20T01:14:12.412Z,70.10
2018-07-20T01:14:45.159Z,70.10
2018-07-20T01:15:17.870Z,70.20
2018-07-20T01:15:50.627Z,70.30
2018-07-20T01:16:23.334Z,70.20
2018-07-20T01:16:56.026Z,70.30
2018-07-20T01:17:28.726Z,70.40
2018-07-20T01:18:01.426Z,70.30
2018-07-20T01:18:34.162Z,70.20
2018-07-20T01:19:06.955Z,70.10
2018-07-20T01:19:39.682Z,70.10
2018-07-20T01:20:12.366Z,69.90
2018-07-20T01:20:45.111Z,70.00
2018-07-20T01:21:18.142Z,69.90
2018-07-20T01:21:50.866Z,70.00
2018-07-20T01:22:23.582Z,70.20
2018-07-20T01:22:56.287Z,70.20
2018-07-20T01:23:29.038Z,70.10
2018-07-20T01:24:01.771Z,70.20
2018-07-20T01:24:34.494Z,70.10
2018-07-20T01:25:07.178Z,70.10
2018-07-20T01:25:39.863Z,70.40
2018-07-20T01:26:12.542Z,70.40
2018-07-20T01:26:45.258Z,70.80
2018-07-20T01:27:17.941Z,70.40
2018-07-20T01:27:50.690Z,70.40
2018-07-20T01:28:23.402Z,70.30
2018-07-20T01:28:56.095Z,70.20
2018-07-20T01:29:28.847Z,70.30
2018-07-20T01:30:01.580Z,70.40
2018-07-20T01:30:34.326Z,70.30
2018-07-20T01:31:07.114Z,70.30
2018-07-20T01:31:39.866Z,70.30
2018-07-20T01:32:12.603Z,70.30
2018-07-20T01:32:45.322Z,70.30
2018-07-20T01:33:18.038Z,70.40
2018-07-20T01:33:50.758Z,70.60
2018-07-20T01:34:23.471Z,70.60
2018-07-20T01:34:56.178Z,70.60
2018-07-20T01:35:28.883Z,70.40
2018-07-20T01:36:01.578Z,70.40
2018-07-20T01:36:34.266Z,70.40
2018-07-20T01:37:06.989Z,70.30
2018-07-20T01:37:39.710Z,70.40
2018-07-20T01:38:12.394Z,70.50
2018-07-20T01:38:45.078Z,70.50
2018-07-20T01:39:17.793Z,70.40
2018-07-20T01:39:50.490Z,70.50
2018-07-20T01:40:23.246Z,70.50
2018-07-20T01:40:55.970Z,70.50
2018-07-20T01:41:28.680Z,70.40
2018-07-20T01:42:01.406Z,70.40
2018-07-20T01:42:34.138Z,70.60
2018-07-20T01:43:07.422Z,70.60
2018-07-20T01:43:40.138Z,70.60
2018-07-20T01:44:12.899Z,70.50
2018-07-20T01:44:45.598Z,70.60
2018-07-20T01:45:18.432Z,70.70
2018-07-20T01:45:51.166Z,70.60
2018-07-20T01:46:23.899Z,70.80
2018-07-20T01:46:56.591Z,70.80
2018-07-20T01:47:29.294Z,70.60
2018-07-20T01:48:02.039Z,70.60
2018-07-20T01:48:34.757Z,70.40
2018-07-20T01:49:07.447Z,70.50
2018-07-20T01:49:40.169Z,70.60
2018-07-20T01:50:12.867Z,70.70
2018-07-20T01:50:45.579Z,70.70
2018-07-20T01:51:18.326Z,70.80
2018-07-20T01:51:51.033Z,70.80
2018-07-20T01:52:23.742Z,70.80
2018-07-20T01:52:56.410Z,70.80
2018-07-20T01:53:29.669Z,71.40
2018-07-20T01:54:02.407Z,70.90
2018-07-20T01:54:35.137Z,70.90
2018-07-20T01:55:07.845Z,71.00
2018-07-20T01:55:40.541Z,71.00
2018-07-20T01:56:13.257Z,71.00
2018-07-20T01:56:45.995Z,71.00
2018-07-20T01:57:18.714Z,70.90
2018-07-20T01:57:51.474Z,70.80
2018-07-20T01:58:24.146Z,70.90
2018-07-20T01:58:56.834Z,71.00
2018-07-20T01:59:29.507Z,71.00
2018-07-20T02:00:02.250Z,71.00
2018-07-20T02:00:34.999Z,70.80
2018-07-20T02:01:07.690Z,70.90
2018-07-20T02:01:40.355Z,71.10
2018-07-20T02:02:13.030Z,71.20
2018-07-20T02:02:45.766Z,71.30
2018-07-20T02:03:18.466Z,71.30
2018-07-20T02:04:23.790Z,71.30
2018-07-20T02:04:56.514Z,71.30
2018-07-20T02:05:29.238Z,71.90
2018-07-20T02:06:01.942Z,71.20
2018-07-20T02:06:34.691Z,71.00
2018-07-20T02:07:07.371Z,71.10
2018-07-20T02:07:40.339Z,71.20
2018-07-20T02:08:13.058Z,71.10
2018-07-20T02:08:45.771Z,71.00
2018-07-20T02:09:18.482Z,71.10
2018-07-20T02:09:51.170Z,71.10
2018-07-20T02:10:23.872Z,71.20
2018-07-20T02:10:59.605Z,71.10
2018-07-20T02:11:32.290Z,71.10
2018-07-20T02:12:05.067Z,71.10
2018-07-20T02:12:37.778Z,71.10
2018-07-20T02:13:10.582Z,71.70
2018-07-20T02:13:43.273Z,71.20
2018-07-20T02:14:15.999Z,71.30
2018-07-20T02:14:48.686Z,71.20
2018-07-20T02:15:21.381Z,71.30
2018-07-20T02:15:54.343Z,71.30
2018-07-20T02:16:27.036Z,71.60
2018-07-20T02:16:59.783Z,71.60
2018-07-20T02:17:32.519Z,71.90
2018-07-20T02:18:05.283Z,72.00
2018-07-20T02:18:38.000Z,71.90
2018-07-20T02:19:10.699Z,72.00
2018-07-20T02:19:43.378Z,72.10
2018-07-20T02:20:16.110Z,72.10
2018-07-20T02:20:48.802Z,72.10
2018-07-20T02:21:21.518Z,72.10
2018-07-20T02:21:54.254Z,72.20
2018-07-20T02:22:26.975Z,72.40
2018-07-20T02:23:32.326Z,72.90
2018-07-20T02:24:05.478Z,72.10
2018-07-20T02:24:38.164Z,72.10
2018-07-20T02:25:10.859Z,72.20
2018-07-20T02:25:43.682Z,72.40
2018-07-20T02:26:16.410Z,72.50
2018-07-20T02:26:49.083Z,72.30
2018-07-20T02:27:21.798Z,72.40
2018-07-20T02:27:54.495Z,72.40
2018-07-20T02:28:27.174Z,72.30
2018-07-20T02:28:59.886Z,72.30
2018-07-20T02:29:32.831Z,72.40
2018-07-20T02:30:05.768Z,72.40
2018-07-20T02:30:38.656Z,72.30
2018-07-20T02:31:11.367Z,72.30
2018-07-20T02:32:16.699Z,72.20
2018-07-20T02:32:49.383Z,72.30
2018-07-20T02:33:22.139Z,72.30
2018-07-20T02:34:27.477Z,72.10
2018-07-20T02:35:00.175Z,72.00
2018-07-20T02:36:06.059Z,72.10
2018-07-20T02:36:38.733Z,72.10
2018-07-20T02:37:11.421Z,72.20
2018-07-20T02:37:44.130Z,72.20
2018-07-20T02:38:16.834Z,72.10
2018-07-20T02:38:49.559Z,72.50
2018-07-20T02:39:22.258Z,72.30
2018-07-20T02:39:54.931Z,72.20
2018-07-20T02:40:27.718Z,72.10
2018-07-20T02:41:00.482Z,72.20
2018-07-20T02:41:33.198Z,72.30
2018-07-20T02:42:05.928Z,72.30
2018-07-20T02:42:38.655Z,72.20
2018-07-20T02:43:11.431Z,72.00
2018-07-20T02:43:44.126Z,71.90
2018-07-20T02:44:16.851Z,72.00
2018-07-20T02:44:49.566Z,72.00
2018-07-20T02:45:22.256Z,72.00
2018-07-20T02:45:55.028Z,72.00
2018-07-20T02:46:27.733Z,72.00
2018-07-20T02:47:00.427Z,71.90
2018-07-20T02:47:33.146Z,71.90
2018-07-20T02:48:05.880Z,71.90
2018-07-20T02:48:38.595Z,72.00
2018-07-20T02:49:11.322Z,72.50
2018-07-20T02:49:44.002Z,72.00
2018-07-20T02:50:16.699Z,71.80
2018-07-20T02:50:49.395Z,71.70
2018-07-20T02:51:22.136Z,71.70
2018-07-20T02:51:54.838Z,71.70
2018-07-20T02:52:27.559Z,71.80
2018-07-20T02:53:00.298Z,71.70
2018-07-20T02:53:32.987Z,71.60
2018-07-20T02:54:05.766Z,71.80
2018-07-20T02:54:38.453Z,71.90
2018-07-20T02:55:11.160Z,71.90
2018-07-20T02:55:43.878Z,72.00
2018-07-20T02:56:16.587Z,72.10
2018-07-20T02:56:49.302Z,72.20
2018-07-20T02:57:22.011Z,72.30
2018-07-20T02:57:54.887Z,72.30
2018-07-20T02:58:27.582Z,72.40
2018-07-20T02:59:00.518Z,72.40
2018-07-20T02:59:33.234Z,72.30
2018-07-20T03:00:05.961Z,72.30
2018-07-20T03:00:38.702Z,72.50
2018-07-20T03:01:11.375Z,72.50
2018-07-20T03:01:44.114Z,72.60
2018-07-20T03:02:49.431Z,72.60
2018-07-20T03:03:22.102Z,72.50
2018-07-20T03:03:54.838Z,72.50
2018-07-20T03:04:27.574Z,72.40
2018-07-20T03:05:00.259Z,72.30
2018-07-20T03:06:05.597Z,72.20
2018-07-20T03:06:38.291Z,72.20
2018-07-20T03:07:10.995Z,72.30
2018-07-20T03:07:43.744Z,72.20
2018-07-20T03:08:16.479Z,72.10
2018-07-20T03:08:49.210Z,72.00
2018-07-20T03:09:21.982Z,72.00
2018-07-20T03:09:54.716Z,71.90
2018-07-20T03:10:27.427Z,71.90
2018-07-20T03:11:00.139Z,72.00
2018-07-20T03:11:32.875Z,72.00
2018-07-20T03:12:05.688Z,72.00
2018-07-20T03:12:38.386Z,71.90
2018-07-20T03:13:11.163Z,72.00
2018-07-20T03:13:43.907Z,71.90
2018-07-20T03:14:16.647Z,71.90
2018-07-20T03:14:49.351Z,71.80
2018-07-20T03:15:22.083Z,71.90
2018-07-20T03:15:54.810Z,72.00
2018-07-20T03:16:27.499Z,72.00
2018-07-20T03:17:00.214Z,72.10
2018-07-20T03:17:32.908Z,72.10
2018-07-20T03:18:05.863Z,72.20
2018-07-20T03:18:38.599Z,72.20
2018-07-20T03:19:11.303Z,72.00
2018-07-20T03:19:44.022Z,72.00
2018-07-20T03:20:16.726Z,72.00
2018-07-20T03:20:49.462Z,71.90
2018-07-20T03:21:22.188Z,71.80
2018-07-20T03:21:54.914Z,71.90
2018-07-20T03:22:27.610Z,72.10
2018-07-20T03:23:00.287Z,72.10
2018-07-20T03:23:33.278Z,72.10
2018-07-20T03:24:06.052Z,72.10
2018-07-20T03:24:38.742Z,72.10
2018-07-20T03:25:11.457Z,72.20
2018-07-20T03:25:44.206Z,72.20
2018-07-20T03:26:16.898Z,72.30
2018-07-20T03:26:49.596Z,72.50
2018-07-20T03:27:22.343Z,72.40
2018-07-20T03:27:55.042Z,72.40
2018-07-20T03:28:27.754Z,72.50
2018-07-20T03:29:00.483Z,72.40
2018-07-20T03:29:33.194Z,72.50
2018-07-20T03:30:05.940Z,72.50
2018-07-20T03:30:38.714Z,72.50
2018-07-20T03:31:11.435Z,72.60
2018-07-20T03:31:44.221Z,72.40
2018-07-20T03:32:16.902Z,72.30
2018-07-20T03:32:49.667Z,72.60
2018-07-20T03:33:22.299Z,72.30
2018-07-20T03:33:54.995Z,72.90
2018-07-20T03:34:27.691Z,72.40
2018-07-20T03:35:00.442Z,72.30
2018-07-20T03:35:33.166Z,72.30
2018-07-20T03:36:05.902Z,72.20
2018-07-20T03:36:38.651Z,72.60
2018-07-20T03:37:11.362Z,72.10
2018-07-20T03:37:44.771Z,72.10
2018-07-20T03:38:17.482Z,72.20
2018-07-20T03:38:50.179Z,72.20
2018-07-20T03:39:22.898Z,72.10
2018-07-20T03:39:55.642Z,72.20
2018-07-20T03:40:28.379Z,72.30
2018-07-20T03:41:01.116Z,72.30
2018-07-20T03:41:33.849Z,72.50
2018-07-20T03:42:06.581Z,73.10
2018-07-20T03:42:39.430Z,72.40
2018-07-20T03:43:12.126Z,72.30
2018-07-20T03:43:44.850Z,72.60
2018-07-20T03:44:17.563Z,72.60
2018-07-20T03:44:50.857Z,72.60
2018-07-20T03:45:23.558Z,72.60
2018-07-20T03:45:56.282Z,72.70
2018-07-20T03:46:28.970Z,72.70
2018-07-20T03:47:01.688Z,72.60
2018-07-20T03:47:34.398Z,72.50
2018-07-20T03:48:07.094Z,72.40
2018-07-20T03:48:39.839Z,72.60
2018-07-20T03:49:12.562Z,72.50
2018-07-20T03:49:45.262Z,72.60
2018-07-20T03:50:17.971Z,72.70
2018-07-20T03:50:50.679Z,72.70
2018-07-20T03:51:23.422Z,72.50
2018-07-20T03:51:56.122Z,72.60
2018-07-20T03:52:28.874Z,72.60
2018-07-20T03:53:01.564Z,72.50
2018-07-20T03:53:34.323Z,72.90
2018-07-20T03:54:07.079Z,72.60
2018-07-20T03:54:39.794Z,72.70
2018-07-20T03:55:12.518Z,72.70
2018-07-20T03:55:45.346Z,73.10
2018-07-20T03:56:18.068Z,73.10
2018-07-20T03:56:50.807Z,72.50
2018-07-20T03:57:23.510Z,72.30
2018-07-20T03:57:56.199Z,72.70
2018-07-20T03:58:28.914Z,72.90
2018-07-20T03:59:01.660Z,73.10
2018-07-20T03:59:34.371Z,73.10
2018-07-20T04:00:07.118Z,73.10
2018-07-20T04:00:39.887Z,73.00
2018-07-20T04:01:12.589Z,73.40
2018-07-20T04:01:45.286Z,73.50
2018-07-20T04:02:18.062Z,73.60
2018-07-20T04:02:50.726Z,73.50
2018-07-20T04:03:23.406Z,73.20
2018-07-20T04:03:56.116Z,73.00
2018-07-20T04:04:28.811Z,72.90
2018-07-20T04:05:01.487Z,72.90
2018-07-20T04:05:34.234Z,72.80
2018-07-20T04:06:07.234Z,72.90
2018-07-20T04:06:39.911Z,73.70
2018-07-20T04:07:12.598Z,73.40
2018-07-20T04:07:45.318Z,74.00
2018-07-20T04:08:18.022Z,74.30
2018-07-20T04:08:50.726Z,74.40
2018-07-20T04:09:23.447Z,74.40
2018-07-20T04:10:28.771Z,74.50
2018-07-20T04:11:01.474Z,74.40
2018-07-20T04:11:34.179Z,74.50
2018-07-20T04:12:06.901Z,74.50
2018-07-20T04:13:12.271Z,74.60
2018-07-20T04:13:44.974Z,74.90
2018-07-20T04:14:17.686Z,75.20
2018-07-20T04:14:50.427Z,75.30
2018-07-20T04:15:23.147Z,75.40
2018-07-20T04:15:55.830Z,75.40
2018-07-20T04:16:28.523Z,75.40
2018-07-20T04:17:01.234Z,75.60
2018-07-20T04:17:39.491Z,75.70
2018-07-20T04:18:12.273Z,75.90
2018-07-20T04:18:45.006Z,76.00
2018-07-20T04:19:17.735Z,75.90
2018-07-20T04:19:50.414Z,75.90
2018-07-20T04:20:23.090Z,75.70
2018-07-20T04:20:55.798Z,75.40
2018-07-20T04:21:28.522Z,75.20
2018-07-20T04:22:01.226Z,75.20
2018-07-20T04:22:33.914Z,75.10
2018-07-20T04:23:06.778Z,75.20
2018-07-20T04:23:39.458Z,75.30
2018-07-20T04:24:12.183Z,75.30
2018-07-20T04:24:44.866Z,75.10
2018-07-20T04:25:17.575Z,75.10
2018-07-20T04:25:50.279Z,75.20
2018-07-20T04:26:23.018Z,75.30
2018-07-20T04:26:55.830Z,75.30
2018-07-20T04:27:28.527Z,75.30
2018-07-20T04:28:01.199Z,75.40
2018-07-20T04:28:33.917Z,75.20
2018-07-20T04:29:06.622Z,75.20
2018-07-20T04:29:39.318Z,75.20
2018-07-20T04:30:13.498Z,75.40
2018-07-20T04:30:46.202Z,75.40
2018-07-20T04:31:18.931Z,75.30
2018-07-20T04:31:51.650Z,75.20
2018-07-20T04:32:24.366Z,75.10
2018-07-20T04:32:57.090Z,75.00
2018-07-20T04:33:29.794Z,75.30
2018-07-20T04:34:02.547Z,75.30
2018-07-20T04:34:35.242Z,75.30
2018-07-20T04:35:08.555Z,75.10
2018-07-20T04:35:41.285Z,75.00
2018-07-20T04:36:14.002Z,75.30
2018-07-20T04:36:46.707Z,75.20
2018-07-20T04:37:19.558Z,75.20
2018-07-20T04:37:52.258Z,75.00
2018-07-20T04:38:24.939Z,74.90
2018-07-20T04:38:57.647Z,75.10
2018-07-20T04:39:30.362Z,74.80
2018-07-20T04:40:03.159Z,74.70
2018-07-20T04:40:35.938Z,74.60
2018-07-20T04:41:08.638Z,74.60
2018-07-20T04:41:42.143Z,74.60
2018-07-20T04:42:14.897Z,74.50
2018-07-20T04:42:47.579Z,74.40
2018-07-20T04:43:20.274Z,74.10
2018-07-20T04:43:53.026Z,74.20
2018-07-20T04:44:25.706Z,74.20
2018-07-20T04:44:58.402Z,74.00
2018-07-20T04:45:31.134Z,73.80
2018-07-20T04:46:03.894Z,73.80
2018-07-20T04:46:36.706Z,73.80
2018-07-20T04:47:09.439Z,73.80
2018-07-20T04:47:42.131Z,73.80
2018-07-20T04:48:14.839Z,73.60
2018-07-20T04:48:47.526Z,73.60
2018-07-20T04:49:20.233Z,73.50
2018-07-20T04:49:52.972Z,73.30
2018-07-20T04:50:25.723Z,73.40
2018-07-20T04:50:58.430Z,73.10
2018-07-20T04:52:03.970Z,73.10
2018-07-20T04:52:36.639Z,72.80
2018-07-20T04:53:09.402Z,72.70
2018-07-20T04:53:42.083Z,73.00
2018-07-20T04:54:14.802Z,73.20
2018-07-20T04:54:47.503Z,73.10
2018-07-20T04:55:20.225Z,72.70
2018-07-20T04:55:52.927Z,72.40
2018-07-20T04:56:25.702Z,72.80
2018-07-20T04:56:58.418Z,72.70
2018-07-20T04:57:31.191Z,72.80
2018-07-20T04:58:03.922Z,72.50
2018-07-20T04:58:36.647Z,72.50
2018-07-20T04:59:09.331Z,72.80
2018-07-20T04:59:42.043Z,73.10
2018-07-20T05:00:14.751Z,72.90
2018-07-20T05:00:47.460Z,72.70
2018-07-20T05:01:20.162Z,72.20
2018-07-20T05:01:52.960Z,71.80
2018-07-20T05:02:25.674Z,71.70
2018-07-20T05:02:58.354Z,71.90
2018-07-20T05:03:31.045Z,72.00
2018-07-20T05:04:03.755Z,71.80
2018-07-20T05:04:36.523Z,71.70
2018-07-20T05:05:09.274Z,70.50
2018-07-20T05:05:41.987Z,70.40
2018-07-20T05:06:14.807Z,70.90
2018-07-20T05:06:47.499Z,71.30
2018-07-20T05:07:20.187Z,71.20
2018-07-20T05:07:52.874Z,70.70
2018-07-20T05:08:25.578Z,70.20
2018-07-20T05:08:58.280Z,70.20
2018-07-20T05:09:30.987Z,70.40
2018-07-20T05:10:03.823Z,70.40
2018-07-20T05:10:36.498Z,70.50
2018-07-20T05:11:09.466Z,70.10
2018-07-20T05:11:42.178Z,69.60
2018-07-20T05:12:14.862Z,69.70
2018-07-20T05:12:47.575Z,69.50
2018-07-20T05:13:20.350Z,69.40
2018-07-20T05:13:53.058Z,68.60
2018-07-20T05:14:25.787Z,68.50
2018-07-20T05:14:58.507Z,68.60
2018-07-20T05:16:03.907Z,69.20
2018-07-20T05:16:36.610Z,69.10
2018-07-20T05:17:09.366Z,68.70
2018-07-20T05:17:42.079Z,69.40
2018-07-20T05:18:14.827Z,69.50
2018-07-20T05:18:47.559Z,69.50
2018-07-20T05:19:20.267Z,69.30
2018-07-20T05:19:52.983Z,68.40
2018-07-20T05:20:25.687Z,68.10
2018-07-20T05:20:58.406Z,67.80
2018-07-20T05:21:31.119Z,68.10
2018-07-20T05:22:03.827Z,67.90
2018-07-20T05:22:36.521Z,67.60
2018-07-20T05:23:09.210Z,67.30
2018-07-20T05:23:41.918Z,67.70
2018-07-20T05:24:14.758Z,66.90
2018-07-20T05:24:47.398Z,68.00
2018-07-20T05:25:20.126Z,67.00
2018-07-20T05:25:52.835Z,67.00
2018-07-20T05:26:25.510Z,67.40
2018-07-20T05:26:58.214Z,67.10
2018-07-20T05:27:30.930Z,67.20
2018-07-20T05:28:03.646Z,67.00
2018-07-20T05:28:36.387Z,67.30
2018-07-20T05:29:09.119Z,67.50
2018-07-20T05:29:41.958Z,67.40
2018-07-20T05:30:14.674Z,67.30
2018-07-20T05:30:47.351Z,67.40
2018-07-20T05:31:20.059Z,67.10
2018-07-20T05:31:52.754Z,67.20
2018-07-20T05:32:25.419Z,66.70
2018-07-20T05:32:58.131Z,66.50
2018-07-20T05:33:30.842Z,65.80
2018-07-20T05:34:03.590Z,65.90
2018-07-20T05:34:36.311Z,64.60
2018-07-20T05:35:09.041Z,64.30
2018-07-20T05:35:41.723Z,64.30
2018-07-20T05:36:14.418Z,64.60
2018-07-20T05:36:47.255Z,64.50
2018-07-20T05:37:19.963Z,64.80
2018-07-20T05:37:52.666Z,64.20
2018-07-20T05:38:25.354Z,64.10
2018-07-20T05:38:58.091Z,64.00
2018-07-20T05:39:30.778Z,64.10
2018-07-20T05:40:03.910Z,63.80
2018-07-20T05:40:36.687Z,63.30
2018-07-20T05:41:09.446Z,63.10
2018-07-20T05:41:42.250Z,62.40
2018-07-20T05:42:14.994Z,61.80
2018-07-20T05:42:47.731Z,61.80
2018-07-20T05:43:20.450Z,61.40
2018-07-20T05:43:53.261Z,61.40
2018-07-20T05:44:25.906Z,62.40
2018-07-20T05:44:58.625Z,62.30
2018-07-20T05:45:31.334Z,61.90
2018-07-20T05:46:04.083Z,62.00
2018-07-20T05:46:36.878Z,61.60
2018-07-20T05:47:09.895Z,61.80
2018-07-20T05:47:42.797Z,61.90
2018-07-20T05:48:15.510Z,62.00
2018-07-20T05:48:48.378Z,60.70
2018-07-20T05:49:21.082Z,60.90
2018-07-20T05:49:53.783Z,60.00
2018-07-20T05:50:26.474Z,60.30
2018-07-20T05:50:59.174Z,60.40
2018-07-20T05:51:31.898Z,59.60
2018-07-20T05:52:04.682Z,59.70
2018-07-20T05:52:37.693Z,60.00
2018-07-20T05:53:10.423Z,59.50
2018-07-20T05:53:43.178Z,60.30
2018-07-20T05:54:15.874Z,60.30
2018-07-20T05:54:48.726Z,59.80
2018-07-20T05:55:21.443Z,59.00
2018-07-20T05:55:54.178Z,58.70
2018-07-20T05:56:26.926Z,58.80
2018-07-20T05:56:59.772Z,58.80
2018-07-20T05:57:32.506Z,58.30
2018-07-20T05:58:05.328Z,58.30
2018-07-20T05:58:38.027Z,58.10
2018-07-20T05:59:10.710Z,58.40
2018-07-20T05:59:43.450Z,58.10
2018-07-20T06:00:16.224Z,58.00
2018-07-20T06:00:48.927Z,57.40
2018-07-20T06:01:21.958Z,56.90
2018-07-20T06:01:54.744Z,57.30
2018-07-20T06:02:27.566Z,56.90
2018-07-20T06:03:00.323Z,58.30
2018-07-20T06:03:33.039Z,57.60
2018-07-20T06:04:05.891Z,57.20
2018-07-20T06:04:38.746Z,57.70
2018-07-20T06:05:11.472Z,58.10
2018-07-20T06:05:44.475Z,58.10
2018-07-20T06:06:17.220Z,56.90
2018-07-20T06:06:50.157Z,57.20
2018-07-20T06:07:22.922Z,57.00
2018-07-20T06:07:55.763Z,58.10
2018-07-20T06:08:28.458Z,57.40
2018-07-20T06:09:01.394Z,56.50
2018-07-20T06:09:34.118Z,56.90
2018-07-20T06:10:06.858Z,56.70
2018-07-20T06:10:39.592Z,56.90
2018-07-20T06:11:12.302Z,56.70
2018-07-20T06:11:45.168Z,57.10
2018-07-20T06:12:17.814Z,58.50
2018-07-20T06:12:50.723Z,57.80
2018-07-20T06:13:23.482Z,56.90
2018-07-20T06:13:57.324Z,56.90
2018-07-20T06:14:30.311Z,58.30
2018-07-20T06:15:03.139Z,57.90
2018-07-20T06:15:35.873Z,57.90
2018-07-20T06:16:08.986Z,58.40
2018-07-20T06:16:41.819Z,57.60
2018-07-20T06:17:14.619Z,57.80
2018-07-20T06:17:47.858Z,57.50
2018-07-20T06:18:20.579Z,57.10
2018-07-20T06:18:53.352Z,57.60
2018-07-20T06:19:26.080Z,59.10
2018-07-20T06:19:59.071Z,59.00
2018-07-20T06:20:31.862Z,58.50
2018-07-20T06:21:05.082Z,57.60
2018-07-20T06:21:38.059Z,56.40
2018-07-20T06:22:10.770Z,55.30
2018-07-20T06:22:43.475Z,55.40
2018-07-20T06:23:16.181Z,56.60
2018-07-20T06:23:49.297Z,57.50
2018-07-20T06:24:22.135Z,56.10
2018-07-20T06:24:54.842Z,55.70
2018-07-20T06:25:27.750Z,55.40
2018-07-20T06:26:00.503Z,54.60
2018-07-20T06:26:33.226Z,54.40
2018-07-20T06:27:06.042Z,54.30
2018-07-20T06:27:38.990Z,54.50
2018-07-20T06:28:11.711Z,55.20
2018-07-20T06:28:44.519Z,55.60
2018-07-20T06:29:17.275Z,54.60
2018-07-20T06:29:50.000Z,55.30
2018-07-20T06:30:22.735Z,55.40
2018-07-20T06:30:56.095Z,54.50
2018-07-20T06:31:28.889Z,54.80
2018-07-20T06:32:01.634Z,54.20
2018-07-20T06:32:34.410Z,54.20
2018-07-20T06:33:07.196Z,55.20
2018-07-20T06:33:39.975Z,54.90
2018-07-20T06:34:12.738Z,53.70
2018-07-20T06:34:45.478Z,54.90
2018-07-20T06:35:18.194Z,55.50
2018-07-20T06:35:50.918Z,54.30
2018-07-20T06:36:23.683Z,56.50
2018-07-20T06:36:56.605Z,55.40
2018-07-20T06:37:33.382Z,54.70
2018-07-20T06:38:06.618Z,55.90
2018-07-20T06:38:39.445Z,56.30
2018-07-20T06:39:13.158Z,56.10
2018-07-20T06:39:46.030Z,54.90
2018-07-20T06:40:18.847Z,55.50
2018-07-20T06:40:51.591Z,55.10
2018-07-20T06:41:24.687Z,55.10
2018-07-20T06:41:57.363Z,54.30
2018-07-20T06:42:30.159Z,54.40
2018-07-20T06:43:02.890Z,55.00
2018-07-20T06:43:35.607Z,55.10
2018-07-20T06:44:08.299Z,56.80
2018-07-20T06:44:41.044Z,56.40
2018-07-20T06:45:13.791Z,55.50
2018-07-20T06:45:46.531Z,55.30
2018-07-20T06:46:20.078Z,55.90
2018-07-20T06:46:52.778Z,56.20
2018-07-20T06:47:25.799Z,54.60
2018-07-20T06:47:58.535Z,54.20
2018-07-20T06:48:31.226Z,53.40
2018-07-20T06:49:04.235Z,53.90
2018-07-20T06:49:36.954Z,56.00
2018-07-20T06:50:17.766Z,55.00
2018-07-20T06:50:50.467Z,56.40
2018-07-20T06:51:24.671Z,56.50
2018-07-20T06:51:57.514Z,56.00
2018-07-20T06:52:30.199Z,56.30
2018-07-20T06:53:02.922Z,53.40
2018-07-20T06:53:35.654Z,51.70
2018-07-20T06:54:08.401Z,52.00
2018-07-20T06:54:41.391Z,53.40
2018-07-20T06:55:14.132Z,53.10
2018-07-20T06:55:46.872Z,53.40
2018-07-20T06:56:19.607Z,52.20
2018-07-20T06:56:52.586Z,53.30
2018-07-20T06:57:25.864Z,52.90
2018-07-20T06:57:58.638Z,52.50
2018-07-20T06:58:31.378Z,53.30
2018-07-20T06:59:04.138Z,52.30
2018-07-20T06:59:37.010Z,52.30
2018-07-20T07:00:10.195Z,52.10
2018-07-20T07:00:42.956Z,51.60
2018-07-20T07:01:15.686Z,51.50
2018-07-20T07:01:48.410Z,51.70
2018-07-20T07:02:21.179Z,51.90
2018-07-20T07:02:53.922Z,51.70
2018-07-20T07:03:26.646Z,51.90
2018-07-20T07:03:59.343Z,52.10
2018-07-20T07:04:32.214Z,54.10
2018-07-20T07:05:06.234Z,53.90
2018-07-20T07:05:38.970Z,53.10
2018-07-20T07:06:11.782Z,54.30
2018-07-20T07:06:44.539Z,54.80
2018-07-20T07:07:17.342Z,54.30
2018-07-20T07:07:50.139Z,53.50
2018-07-20T07:08:22.826Z,52.50
2018-07-20T07:08:55.562Z,52.00